Terminal Aerodrome Forecast
Issued by NWS Blacksburg, VA

Current Version | Previous Version | Text Only | Print | Product List | Glossary Off
Versions: 1 2 3 4 5 6 7 8 9 10 11 12 13 14 15 16 17 18 19 20 21 22 23

000
FTUS41 KRNK 141046 AAD
TAFBLF
TAF AMD
KBLF 141046Z 1411/1506 00000KT 1/4SM FG VV001
      TEMPO 1412/1414 3SM BR OVC005
     FM141400 19004KT P6SM OVC045
     FM150100 19004KT P6SM FEW250=

USA.gov is the U.S. government's official web portal to all federal, state and local government web resources and services.